Date,TemperatureHighF,TemperatureAvgF,TemperatureLowF,DewpointHighF,DewpointAvgF,DewpointLowF,HumidityHigh,HumidityAvg,HumidityLow,PressureMaxIn,PressureMinIn,WindSpeedMaxMPH,WindSpeedAvgMPH,GustSpeedMaxMPH,PrecipitationSumIn
2014-1-1,42.6,40.0,35.6,42.6,40.0,35.6,100,100,99,30.37,30.27,0,-999,0,0.04
2014-1-2,47.9,42.3,38.7,44.4,41.6,38.7,100,97,85,30.27,30.07,0,-999,0,0.01
2014-1-3,48.4,43.1,33.9,45.9,40.5,26.5,100,91,71,30.31,30.08,0,-999,0,0.01
2014-1-4,43.9,35.6,27.3,36.9,33.9,26.1,100,94,72,30.41,30.30,0,-999,0,0.00
2014-1-5,46.2,32.8,23.2,34.4,28.7,22.1,100,86,60,30.43,30.26,0,-999,0,0.01
2014-1-6,43.7,36.7,29.8,39.0,34.3,28.8,99,91,76,30.29,30.18,0,-999,0,0.11
2014-1-7,48.0,44.3,39.7,48.0,44.2,38.9,100,99,96,30.19,30.03,0,-999,0,0.22
2014-1-8,53.4,49.2,45.3,51.6,48.8,45.3,100,99,90,30.09,29.87,0,-999,0,0.26
2014-1-9,48.8,45.6,43.0,48.8,45.5,43.0,100,99,96,30.14,29.98,0,-999,0,0.11
2014-1-10,52.7,50.2,47.3,50.9,48.5,45.5,100,94,79,30.21,29.83,0,-999,0,0.11
2014-1-11,53.9,47.4,43.3,51.9,45.7,42.8,100,93,71,30.12,29.69,0,-999,0,0.54
2014-1-12,53.3,47.7,42.8,53.0,47.6,42.8,100,99,96,30.53,30.12,0,-999,0,0.18
2014-1-13,54.4,48.1,39.5,51.2,46.9,39.5,100,95,79,30.67,30.52,0,-999,0,0.03
2014-1-14,47.1,42.0,37.9,46.2,41.8,37.9,100,99,94,30.68,30.57,0,-999,0,0.02
2014-1-15,42.2,40.0,37.8,42.2,40.0,37.8,100,100,98,30.58,30.47,0,-999,0,0.00
2014-1-16,40.6,38.4,36.3,40.1,38.3,36.3,100,99,96,30.48,30.30,0,-999,0,0.01
2014-1-17,40.1,37.0,34.5,39.3,36.9,34.5,100,99,95,30.30,30.21,0,-999,0,0.00
2014-1-18,38.5,35.6,34.0,38.2,35.5,34.0,100,100,97,30.31,30.19,0,-999,0,0.02
2014-1-19,39.9,36.0,32.7,39.0,35.9,32.7,100,99,95,30.25,30.17,0,-999,0,0.01
2014-1-20,45.7,37.1,33.4,42.0,36.3,33.4,100,97,83,30.31,30.25,0,-999,0,0.00
2014-1-21,40.6,35.4,32.2,38.9,35.1,32.2,100,99,92,30.38,30.28,0,-999,0,0.01
2014-1-22,50.9,42.2,35.4,45.4,40.5,35.4,100,94,78,30.39,30.28,0,-999,0,0.00
2014-1-23,53.2,42.8,36.3,39.5,34.9,32.0,98,75,52,30.31,30.21,0,-999,0,0.00
2014-1-24,53.8,42.2,35.3,35.5,31.9,29.5,82,67,45,30.36,30.24,0,-999,0,0.00
2014-1-25,49.3,37.1,28.9,36.1,31.3,26.9,97,80,56,30.40,30.25,0,-999,0,0.01
2014-1-26,50.7,37.1,28.3,40.2,33.7,28.1,100,88,61,30.25,30.07,0,-999,0,0.00
2014-1-27,41.5,37.6,30.1,37.7,33.9,26.4,98,86,73,30.25,30.11,0,-999,0,0.01
2014-1-28,42.9,41.1,39.4,42.9,40.0,37.3,100,96,88,30.25,29.99,0,-999,0,0.36
2014-1-29,58.6,49.9,43.0,50.2,46.5,41.4,100,88,69,30.02,29.83,0,-999,0,0.05
2014-1-30,54.4,45.8,40.8,44.1,40.7,38.1,98,83,55,30.04,29.97,0,-999,0,0.06
2014-1-31,50.2,43.0,39.4,44.8,41.1,39.0,99,93,79,30.18,30.04,0,-999,0,0.06
2014-2-1,55.0,43.5,39.7,43.4,40.0,36.9,99,88,59,30.20,30.01,0,-999,0,0.01
2014-2-2,48.4,40.7,34.2,40.6,37.3,33.3,100,88,71,30.01,29.94,0,-999,0,0.00
2014-2-3,50.2,40.0,33.1,40.4,36.0,31.1,100,87,48,30.15,30.00,0,-999,0,0.02
2014-2-4,38.3,35.5,27.6,37.7,33.4,23.2,99,91,71,30.30,30.15,0,-999,0,0.00
2014-2-5,35.1,28.7,23.0,23.5,16.2,9.5,76,59,44,30.35,30.17,0,-999,0,0.00
2014-2-6,25.9,23.0,19.3,24.2,18.4,9.2,99,84,52,30.17,29.73,0,-999,0,0.02
2014-2-7,29.5,24.9,18.9,29.5,24.3,16.6,100,97,91,29.92,29.63,0,-999,0,0.00
2014-2-8,31.8,30.1,28.6,31.8,30.1,28.6,100,100,99,29.96,29.73,0,-999,0,0.00
2014-2-10,50.3,44.8,38.9,48.5,44.1,38.9,100,97,91,30.21,30.18,0,-999,0,0.60
2014-2-11,47.4,44.5,41.2,47.4,44.5,41.2,100,100,98,30.19,29.80,0,-999,0,0.79
2014-2-12,56.1,51.9,46.7,56.1,51.9,46.6,100,100,100,29.96,29.77,0,-999,0,0.29
2014-2-13,56.5,50.4,43.9,53.1,49.0,43.9,100,95,78,30.17,29.79,0,-999,0,0.36
2014-2-14,55.6,51.8,48.0,53.1,51.0,47.9,100,97,84,30.00,29.76,0,-999,0,0.65
2014-2-15,54.7,47.8,42.4,54.6,47.6,42.4,100,99,90,29.93,29.42,0,-999,0,0.66
2014-2-16,50.5,45.2,39.7,47.0,43.0,39.7,100,92,77,30.10,29.83,0,-999,0,0.14
2014-2-17,53.2,47.4,44.2,49.9,45.0,42.5,100,91,72,30.05,29.83,0,-999,0,0.43
2014-2-18,50.8,46.4,39.0,50.8,46.2,39.0,100,99,96,30.06,29.79,0,-999,0,0.57
2014-2-19,50.5,43.2,37.2,48.5,42.5,37.2,100,97,86,30.27,30.06,0,-999,0,0.19
2014-2-20,49.8,46.6,43.2,49.6,46.4,43.2,100,99,96,30.29,30.23,0,-999,0,0.14
2014-2-21,56.8,47.6,40.6,47.7,43.9,38.7,100,88,59,30.31,30.21,0,-999,0,0.00
2014-2-22,54.1,42.3,34.7,43.8,37.8,34.6,99,84,59,30.22,30.05,0,-999,0,0.00
2014-2-23,49.8,42.5,32.2,47.6,40.6,32.0,100,93,79,30.06,29.96,0,-999,0,0.03
2014-2-24,62.8,52.7,47.8,56.7,51.0,47.0,100,94,78,30.02,29.97,0,-999,0,0.22
2014-2-25,54.7,47.2,40.8,47.1,40.6,34.9,97,78,60,30.02,29.92,0,-999,0,0.05
2014-2-26,51.9,44.9,39.9,39.0,35.5,33.7,79,69,57,29.92,29.64,0,-999,0,0.00
2014-2-27,52.3,46.6,43.0,48.7,42.9,34.8,99,87,71,29.74,29.61,0,-999,0,0.24
2014-2-28,61.3,50.4,44.2,49.9,46.2,41.9,100,86,61,29.69,29.39,0,-999,0,0.04
2014-3-1,57.7,49.1,45.3,53.1,46.4,41.2,99,90,76,29.74,29.48,0,-999,0,0.17
2014-3-2,55.9,50.0,44.7,54.3,48.3,44.6,100,94,81,29.87,29.67,0,-999,0,0.34
2014-3-3,60.1,53.3,46.4,57.4,51.4,45.8,100,93,76,29.99,29.77,0,-999,0,0.38
2014-3-4,66.4,55.4,46.4,53.4,50.6,46.2,99,85,59,30.05,29.84,0,-999,0,0.01
2014-3-5,59.7,56.1,52.5,58.5,55.2,49.7,100,97,85,29.84,29.52,0,-999,0,1.23
2014-3-6,56.0,51.0,48.1,52.8,49.9,47.9,100,96,83,30.19,29.63,0,-999,0,0.51
2014-3-7,67.8,53.3,45.2,52.0,48.1,43.5,100,84,51,30.29,30.10,0,-999,0,0.00
2014-3-8,57.6,51.3,43.0,55.0,48.6,42.0,100,90,74,30.12,29.88,0,-999,0,0.31
2014-3-9,64.6,56.7,51.8,59.0,55.3,50.8,100,95,80,30.05,29.93,0,-999,0,0.32
2014-3-10,60.1,50.7,40.5,51.6,45.4,39.1,98,83,53,30.50,30.02,0,-999,0,0.02
2014-3-11,56.1,45.1,35.7,44.1,40.0,35.6,100,84,59,30.55,30.36,0,-999,0,0.11
2014-3-12,64.8,49.2,36.4,45.3,40.0,35.4,99,72,38,30.36,30.15,0,-999,0,0.02
2014-3-13,68.2,50.8,37.6,47.9,42.9,36.3,98,76,42,30.16,30.06,0,-999,0,0.03
2014-3-14,68.0,55.1,47.5,53.9,47.6,40.9,99,78,44,30.32,30.05,0,-999,0,0.20
2014-3-15,69.7,53.0,41.4,52.6,46.6,39.7,98,80,52,30.34,30.26,0,-999,0,0.01
2014-3-16,63.9,53.4,43.5,50.7,47.7,43.2,99,82,55,30.34,29.99,0,-999,0,0.30
2014-3-17,55.6,45.2,38.3,43.7,38.7,32.1,100,80,48,30.40,30.13,0,-999,0,0.02
2014-3-18,56.3,45.9,35.8,43.5,39.0,34.4,97,78,55,30.38,30.14,0,-999,0,0.02
2014-3-19,59.6,47.6,37.4,46.5,41.7,36.7,99,81,54,30.28,30.12,0,-999,0,0.01
2014-3-20,55.1,43.4,33.5,39.2,36.0,32.3,99,77,42,30.37,30.28,0,-999,0,0.01
2014-3-21,55.6,44.5,34.9,37.6,34.6,30.0,94,70,40,30.31,30.18,0,-999,0,0.03
2014-3-22,59.5,46.7,34.5,37.4,33.6,26.8,92,62,28,30.28,30.17,0,-999,0,0.04
2014-3-23,62.4,48.1,35.1,42.2,36.7,31.6,93,66,32,30.29,30.17,0,-999,0,0.00
2014-3-24,73.8,53.3,38.0,48.0,41.1,34.6,96,67,35,30.16,29.89,0,-999,0,0.00
2014-3-25,56.5,50.9,46.6,51.1,46.5,37.0,99,86,55,29.89,29.68,0,-999,0,0.30
2014-3-26,54.1,48.4,45.8,51.7,47.3,45.6,100,95,79,29.68,29.56,0,-999,0,0.43
2014-3-27,57.7,50.0,44.4,51.9,47.7,44.4,100,92,72,29.92,29.61,0,-999,0,0.44
2014-3-28,54.5,51.4,48.9,53.9,50.8,47.8,100,97,93,29.89,29.75,0,-999,0,0.78
2014-3-29,56.8,50.1,46.6,53.0,48.0,44.6,100,92,70,29.94,29.79,0,-999,0,0.32
2014-3-30,57.6,48.3,40.5,49.1,45.0,39.6,100,89,65,30.02,29.94,0,-999,0,0.26
2014-3-31,53.4,45.2,38.1,48.1,42.7,37.4,100,91,73,29.94,29.66,0,-999,0,0.14
2014-4-1,61.3,49.8,42.6,47.9,45.2,42.0,99,85,50,29.95,29.73,0,-999,0,0.16
2014-4-2,66.6,52.2,43.9,47.4,45.0,42.4,99,79,43,30.06,29.95,0,-999,0,0.07
2014-4-3,59.5,50.0,43.0,46.1,43.8,41.2,95,80,51,30.02,29.95,0,-999,0,0.13
2014-4-4,63.3,52.9,47.3,47.9,44.8,39.6,95,76,43,30.00,29.95,0,-999,0,0.13
2014-4-5,57.8,53.3,49.6,52.4,48.6,44.7,91,84,73,30.18,30.00,0,-999,0,0.07
2014-4-6,70.1,57.9,50.7,53.8,51.3,48.5,94,80,51,30.31,30.18,0,-999,0,0.08
2014-4-7,77.0,57.5,45.3,56.9,50.4,44.2,100,79,46,30.29,30.11,0,-999,0,0.03
2014-4-8,76.5,57.5,44.3,56.4,49.2,42.9,97,76,44,30.19,30.07,0,-999,0,0.02
2014-4-9,63.7,55.2,48.0,53.4,43.6,31.6,92,67,31,30.24,30.14,0,-999,0,0.02
2014-4-10,65.1,52.9,42.1,43.7,39.5,29.9,92,64,30,30.23,30.07,0,-999,0,0.03
2014-4-11,68.2,55.3,44.3,47.9,43.7,41.3,91,67,38,30.12,29.98,0,-999,0,0.01
2014-4-12,65.1,53.3,43.4,46.3,43.0,40.6,92,70,41,30.10,30.01,0,-999,0,0.01
2014-4-13,72.8,57.8,43.8,45.7,38.8,32.3,88,54,24,30.20,30.07,0,-999,0,0.02
2014-4-14,75.5,57.8,44.8,45.0,38.4,29.5,80,50,28,30.21,30.06,0,-999,0,0.00
2014-4-15,67.3,54.3,42.7,44.4,41.4,37.0,89,63,38,30.26,30.13,0,-999,0,0.01
2014-4-16,68.0,57.4,50.5,49.4,46.2,42.9,84,68,43,30.16,30.00,0,-999,0,0.00
2014-4-17,57.7,53.2,44.4,53.7,50.3,43.4,96,89,79,30.05,29.88,0,-999,0,0.38
2014-4-18,63.0,50.2,39.0,46.4,40.9,34.6,100,74,35,30.14,29.86,0,-999,0,0.06
2014-4-19,64.5,51.5,42.7,51.5,44.3,39.9,91,77,52,30.24,29.84,0,-999,0,0.06
2014-4-20,70.0,54.0,40.5,48.8,44.6,39.1,98,73,44,30.28,30.11,0,-999,0,0.03
2014-4-21,68.9,53.0,48.7,51.9,46.9,42.9,96,80,39,30.12,29.89,0,-999,0,0.24
2014-4-22,57.0,50.4,45.1,49.8,45.5,43.8,97,84,61,29.98,29.90,0,-999,0,0.09
2014-4-23,56.2,51.1,46.0,53.3,48.5,44.8,99,90,73,29.99,29.79,0,-999,0,0.48
2014-4-24,60.5,54.0,49.2,53.2,50.3,46.4,100,88,59,29.93,29.74,0,-999,0,0.53
2014-4-25,56.3,50.2,45.9,49.9,47.2,45.1,97,89,71,29.92,29.86,0,-999,0,0.24
2014-4-26,58.3,48.2,39.1,47.4,44.1,39.1,100,87,59,29.90,29.75,0,-999,0,0.20
2014-4-27,56.2,49.5,43.8,47.5,46.2,43.8,99,89,66,30.17,29.76,0,-999,0,0.23
2014-4-28,69.3,51.8,40.7,49.6,45.5,40.7,100,82,44,30.33,30.18,0,-999,0,0.05
2014-4-29,76.8,60.2,44.4,51.3,46.3,42.1,94,64,35,30.44,30.24,0,-999,0,0.03
2014-4-30,86.5,69.6,57.0,49.0,42.7,35.4,48,38,24,30.28,30.00,0,-999,0,0.06
2014-5-1,92.5,71.6,56.1,55.2,45.9,37.7,69,41,22,30.06,29.98,0,-999,0,0.07
2014-5-2,76.0,61.6,51.1,54.1,49.5,41.5,87,65,43,30.09,29.97,0,-999,0,0.01
2014-5-3,63.5,56.1,50.6,53.0,49.1,45.9,98,78,53,30.01,29.79,0,-999,0,0.25
2014-5-4,63.1,55.8,51.1,52.8,50.0,46.8,99,81,59,29.95,29.81,0,-999,0,0.02
2014-5-5,66.6,55.2,47.8,55.0,47.8,43.9,94,77,46,30.07,29.95,0,-999,0,0.13
2014-5-6,70.5,55.9,45.0,50.4,44.6,36.9,93,68,36,30.08,29.99,0,-999,0,0.02
2014-5-7,74.1,54.6,40.2,47.1,42.1,37.9,93,66,32,30.05,29.91,0,-999,0,0.00
2014-5-8,61.0,54.9,50.5,57.2,51.1,44.3,95,87,71,29.92,29.71,0,-999,0,0.37
2014-5-9,60.5,52.1,47.6,52.1,49.4,47.5,99,91,67,30.08,29.90,0,-999,0,0.44
2014-5-10,66.7,53.9,46.6,53.1,48.4,44.2,100,83,53,30.28,30.08,0,-999,0,0.15
2014-5-11,68.2,55.3,43.4,49.2,45.6,42.0,97,72,40,30.32,30.20,0,-999,0,0.06
2014-5-12,78.2,63.1,48.7,49.7,44.3,36.2,91,56,25,30.27,30.17,0,-999,0,0.01
2014-5-13,83.1,68.2,53.2,48.3,42.2,34.3,68,40,25,30.27,30.18,0,-999,0,0.04
2014-5-14,90.3,73.3,57.2,58.1,50.2,43.6,72,45,29,30.20,30.01,0,-999,0,0.14
2014-5-15,88.5,71.3,59.4,57.9,54.0,45.6,84,57,31,30.11,30.01,0,-999,0,0.10
2014-5-16,80.8,62.6,49.6,53.3,49.7,46.6,91,65,37,30.15,30.07,0,-999,0,0.03
2014-5-17,76.3,62.6,53.8,60.1,51.2,48.5,89,69,39,30.10,29.86,0,-999,0,0.30
2014-5-18,66.8,57.9,54.2,57.0,54.1,51.4,95,87,67,29.93,29.85,0,-999,0,0.58
2014-5-19,72.1,60.8,53.3,55.8,51.9,45.9,97,75,40,30.02,29.92,0,-999,0,0.10
2014-5-20,78.2,62.4,51.8,53.7,51.2,49.2,92,69,41,30.13,30.02,0,-999,0,0.05
2014-5-21,75.2,61.4,49.0,54.5,50.3,46.9,92,69,42,30.16,30.06,0,-999,0,0.01
2014-5-22,83.2,67.7,54.9,59.5,54.8,51.1,87,65,38,30.09,29.95,0,-999,0,0.04
2014-5-23,76.5,66.4,60.4,60.1,56.9,54.5,86,72,49,30.13,29.98,0,-999,0,0.08
2014-5-24,74.4,63.5,56.5,54.7,51.6,48.3,88,67,40,30.18,30.09,0,-999,0,0.06
2014-5-25,82.1,64.3,51.8,56.0,52.2,49.0,90,68,33,30.11,29.97,0,-999,0,0.03
2014-5-26,73.2,63.7,55.2,52.9,48.7,43.9,82,60,37,30.16,30.06,0,-999,0,0.01
2014-5-27,72.1,59.0,53.9,54.0,48.7,44.8,87,70,38,30.15,30.11,0,-999,0,0.13
2014-5-28,71.6,59.0,51.1,49.5,47.0,42.9,91,67,36,30.24,30.13,0,-999,0,0.03
2014-5-29,69.9,59.0,49.4,50.4,47.4,46.2,89,67,43,30.24,30.08,0,-999,0,0.02
2014-5-30,55.0,53.0,51.8,46.5,46.2,45.8,79,77,72,30.08,30.06,0,-999,0,0.00
2014-6-3,75.1,66.7,55.5,52.1,50.5,48.7,81,57,42,30.08,30.03,0,-999,0,0.01
2014-6-4,77.4,61.7,50.0,53.3,50.0,47.0,93,67,39,30.14,30.04,0,-999,0,0.00
2014-6-5,79.6,62.4,49.6,49.8,45.6,40.6,80,57,28,30.14,30.00,0,-999,0,0.03
2014-6-6,83.4,64.8,49.3,51.7,44.1,36.1,76,49,24,30.10,30.01,0,-999,0,0.01
2014-6-7,80.6,66.2,54.0,55.2,50.8,43.0,79,59,39,30.17,30.08,0,-999,0,0.00
2014-6-8,85.0,68.1,54.7,56.7,53.7,50.5,88,63,33,30.21,30.04,0,-999,0,0.06
2014-6-9,79.0,65.3,55.8,53.9,51.1,48.1,85,62,35,30.13,30.02,0,-999,0,0.01
2014-6-10,79.3,63.3,50.2,51.5,47.7,44.3,86,59,33,30.12,30.01,0,-999,0,0.02
2014-6-11,82.9,66.0,53.4,53.2,50.2,44.9,86,60,27,30.04,29.81,0,-999,0,0.01
2014-6-12,70.1,62.0,57.7,58.0,50.7,48.2,77,67,46,29.96,29.84,0,-999,0,0.02
2014-6-13,69.1,60.6,53.2,54.8,50.7,46.7,91,71,48,30.18,29.96,0,-999,0,0.05
2014-6-14,71.0,61.5,53.3,51.3,48.6,45.9,83,64,41,30.18,30.01,0,-999,0,0.02
2014-6-15,72.6,60.7,53.8,55.6,48.9,44.0,84,66,40,30.01,29.89,0,-999,0,0.02
2014-6-16,69.8,58.4,50.7,56.0,47.2,44.2,87,67,40,30.05,29.92,0,-999,0,0.09
2014-6-17,68.5,59.6,51.4,53.0,49.9,45.4,89,71,53,30.16,30.05,0,-999,0,0.02
2014-6-18,79.5,62.9,49.6,51.1,48.3,45.7,90,62,30,30.15,29.99,0,-999,0,0.01
2014-6-19,86.8,67.0,49.9,54.1,51.0,46.1,87,59,31,30.08,29.96,0,-999,0,0.00
2014-6-20,75.9,64.3,56.0,55.5,51.3,47.1,94,65,36,30.15,30.08,0,-999,0,0.01
2014-6-21,78.2,63.3,51.6,51.7,46.5,40.0,80,57,26,30.10,29.97,0,-999,0,0.01
2014-6-22,84.7,68.1,52.9,54.9,49.7,43.8,84,56,23,30.06,29.92,0,-999,0,0.01
2014-6-23,85.8,68.1,56.8,56.6,51.9,42.7,82,59,28,30.09,29.95,0,-999,0,0.03
2014-6-24,84.8,68.3,54.7,59.0,54.6,51.8,90,65,34,30.11,29.99,0,-999,0,0.03
2014-6-25,79.0,68.3,60.1,62.5,59.6,56.7,90,74,52,29.99,29.81,0,-999,0,0.04
2014-6-26,75.9,66.0,61.2,60.7,58.2,54.5,91,76,51,29.87,29.81,0,-999,0,0.06
2014-6-27,77.2,65.8,60.0,61.7,57.4,53.9,95,76,47,29.97,29.77,0,-999,0,0.34
2014-6-28,72.8,64.9,58.8,60.3,56.7,54.3,92,75,57,30.08,29.95,0,-999,0,0.07
2014-6-29,77.6,67.2,59.1,56.2,53.7,49.3,86,64,38,30.18,30.08,0,-999,0,0.03
2014-6-30,85.7,69.3,55.0,56.3,53.7,49.9,90,61,32,30.16,29.87,0,-999,0,0.05
2014-7-1,99.6,78.7,64.2,56.6,52.9,48.5,63,43,18,29.87,29.70,0,-999,0,0.16
2014-7-2,89.6,72.1,61.3,59.5,56.3,53.7,82,59,31,30.01,29.82,0,-999,0,0.13
2014-7-3,80.4,68.1,59.7,55.3,53.2,51.0,79,60,36,30.10,30.00,0,-999,0,0.06
2014-7-4,86.0,69.2,57.0,54.6,52.3,47.9,86,58,32,30.04,29.94,0,-999,0,0.09
2014-7-5,91.2,71.9,56.5,56.1,51.3,39.3,82,53,17,30.09,30.01,0,-999,0,0.09
2014-7-6,92.0,74.1,58.6,61.5,55.4,52.5,84,56,27,30.15,30.02,0,-999,0,0.00
2014-7-7,93.8,77.1,64.6,63.1,61.0,58.0,85,60,31,30.07,29.91,0,-999,0,0.00
2014-7-8,93.8,76.5,62.4,62.4,59.9,56.8,89,60,29,29.99,29.91,0,-999,0,0.00
2014-7-9,89.9,73.6,61.4,58.1,53.9,49.7,77,53,25,30.00,29.86,0,-999,0,0.00
2014-7-10,89.7,70.7,54.3,59.1,52.6,43.6,90,57,21,29.95,29.81,0,0,0,0.00
2014-7-11,89.1,73.8,58.6,62.4,58.2,54.4,90,61,32,29.98,29.85,0,0,0,0.00
2014-7-12,94.3,75.3,60.5,62.5,59.1,56.4,88,61,28,30.07,29.98,0,0,0,0.00
2014-7-13,79.0,67.9,59.7,64.1,59.2,55.6,90,74,59,30.12,30.05,0,0,0,0.03
2014-7-14,90.9,73.4,62.0,63.4,59.7,56.4,88,65,36,30.13,29.99,0,0,0,0.00
2014-7-15,96.2,77.5,62.4,63.5,58.5,53.9,75,54,27,30.05,29.87,0,0,0,0.00
2014-7-16,96.7,77.8,64.2,60.6,56.0,46.1,76,51,19,29.99,29.87,0,0,0,0.00
2014-7-17,89.1,71.0,56.4,55.3,51.9,46.1,87,55,23,30.06,29.95,0,0,0,0.00
2014-7-18,84.8,68.6,54.7,55.8,50.9,46.7,86,56,30,30.09,30.01,0,0,0,0.00
2014-7-19,93.6,83.2,71.0,64.3,59.9,55.1,68,46,32,30.08,29.93,0,0,0,0.01
2014-7-20,80.3,69.4,61.4,61.0,56.6,51.1,89,65,43,29.98,29.90,0,0,0,0.00
2014-7-21,87.0,69.5,57.9,56.5,52.6,50.4,78,57,31,30.01,29.93,0,0,0,0.00
2014-7-22,80.5,71.0,62.4,61.0,56.5,49.3,84,61,42,30.03,29.96,0,0,0,0.00
2014-7-23,70.9,63.1,58.3,60.8,54.4,50.4,92,74,52,30.17,30.00,0,0,0,0.00
2014-7-24,76.9,65.1,57.2,56.4,54.0,52.3,88,69,43,30.27,30.15,0,0,0,0.00
2014-7-25,81.3,66.7,55.1,57.5,53.7,51.7,90,66,38,30.15,30.01,0,0,0,0.00
2014-7-26,86.3,70.3,57.0,58.9,55.2,48.8,89,62,29,30.11,30.02,0,0,0,0.01
2014-7-27,88.0,73.0,60.4,60.8,57.1,55.4,84,60,34,30.10,29.98,0,0,0,0.00
2014-7-28,94.3,77.4,62.6,60.2,57.2,51.3,85,54,23,30.07,29.96,0,0,0,0.01
2014-7-29,93.4,76.3,63.0,60.0,56.5,53.5,77,53,26,30.09,29.98,0,0,0,0.00
2014-7-30,91.6,74.5,59.0,59.3,56.1,52.3,86,56,27,30.09,29.95,0,0,0,0.00
2014-7-31,93.5,77.4,62.6,59.8,55.5,52.9,74,49,27,30.04,29.90,0,0,0,0.07
2014-8-1,93.2,82.5,69.2,60.0,57.2,52.5,67,43,29,29.98,29.86,0,0,0,0.00
2014-8-2,91.7,73.6,60.1,61.1,57.5,54.4,86,60,28,29.98,29.90,0,0,0,0.00
2014-8-3,92.0,74.3,58.3,62.7,57.6,54.0,86,59,33,30.01,29.84,0,0,0,0.00
2014-8-4,95.6,75.5,62.2,61.8,58.7,55.0,84,59,29,29.98,29.86,0,0,0,0.00
2014-8-5,85.8,69.4,56.0,58.2,53.3,44.0,88,61,23,30.09,29.98,0,0,0,0.00
2014-8-6,86.6,71.4,57.9,60.2,57.6,54.4,89,64,37,30.14,30.00,0,0,0,0.00
2014-8-7,85.5,71.2,60.1,57.1,51.0,41.6,82,53,23,30.08,29.97,0,0,0,0.00
2014-8-8,81.8,68.0,55.6,55.5,50.7,46.6,79,56,31,30.11,30.00,0,0,0,0.00
2014-8-9,86.2,70.5,56.0,55.4,52.4,49.3,85,56,28,30.10,29.96,0,0,0,0.00
2014-8-10,92.5,76.3,60.8,61.5,55.1,52.8,76,50,27,30.02,29.84,0,0,0,0.00
2014-8-11,105.6,84.3,70.4,62.4,58.6,55.7,62,44,20,29.89,29.77,0,0,0,0.00
2014-8-12,83.1,71.7,65.6,61.4,58.5,55.8,75,63,46,29.92,29.80,0,0,0,0.01
2014-8-13,84.7,69.5,59.0,61.6,57.8,54.4,85,68,40,30.00,29.92,0,0,0,0.00
2014-8-14,87.3,71.9,62.8,61.6,59.5,55.8,93,68,34,30.01,29.92,0,0,0,0.00
2014-8-15,87.9,72.4,65.0,60.4,59.0,57.4,80,64,36,30.04,29.96,0,0,0,0.00
2014-8-16,86.8,72.9,61.5,61.9,59.2,56.4,87,65,36,30.08,29.97,0,0,0,0.00
2014-8-17,89.1,75.8,64.4,61.3,59.5,56.4,85,60,33,30.07,29.93,0,0,0,0.00
2014-8-18,90.9,74.8,61.2,61.7,58.5,55.8,82,59,33,29.97,29.75,0,0,0,0.00
2014-8-19,89.4,74.2,63.4,59.9,58.1,55.0,82,59,32,29.87,29.77,0,0,0,0.00
2014-8-20,80.6,69.9,61.5,58.9,53.9,49.5,81,59,35,29.98,29.87,0,0,0,0.00
2014-8-21,82.7,66.5,53.1,54.0,49.1,44.5,88,58,26,30.04,29.91,0,0,0,0.00
2014-8-22,82.3,68.2,55.8,56.5,52.2,47.5,83,58,33,30.04,29.95,0,0,0,0.00
2014-8-23,86.6,71.5,58.0,55.7,51.8,45.9,81,53,25,30.09,29.94,0,0,0,0.00
2014-8-24,84.5,71.9,61.0,57.5,49.4,42.7,69,47,23,29.96,29.82,0,0,0,0.00
2014-8-25,89.5,73.7,61.1,56.8,53.2,45.6,84,53,24,29.96,29.86,0,0,0,0.00
2014-8-26,93.1,77.8,65.2,55.2,53.2,48.6,66,45,22,30.00,29.89,0,0,0,0.00
2014-8-27,93.9,75.5,61.1,58.3,55.1,52.6,76,51,28,30.03,29.94,0,0,0,0.00
2014-8-28,87.4,72.3,61.0,57.8,55.5,52.2,82,58,33,30.09,29.96,0,0,0,0.00
2014-8-29,82.6,68.7,58.3,59.5,56.8,54.7,88,67,41,30.00,29.91,0,0,0,0.00
2014-8-30,70.5,65.4,61.3,64.3,59.1,56.9,90,80,66,30.01,29.92,0,0,0,0.00
2014-8-31,79.0,65.0,53.8,58.0,54.1,50.6,95,71,41,30.07,30.00,0,0,0,0.00
2014-9-1,81.8,66.4,52.5,58.3,53.7,49.8,91,66,39,30.07,29.92,0,0,0,0.00
2014-9-2,82.6,67.4,58.8,57.8,54.6,50.8,93,66,35,30.00,29.88,0,0,0,0.00
2014-9-3,73.2,61.9,49.9,52.8,48.6,46.4,91,64,39,30.10,29.99,0,0,0,0.00
2014-9-4,83.4,67.1,53.7,52.3,49.3,45.2,90,58,27,30.02,29.88,0,0,0,0.00
2014-9-5,91.5,74.8,62.1,49.1,43.7,36.9,54,36,17,29.98,29.84,0,0,0,0.00
2014-9-6,93.0,76.6,62.2,51.9,41.6,35.2,61,30,13,29.89,29.77,0,0,0,0.00
2014-9-7,83.8,65.8,50.5,54.9,50.2,46.2,87,60,29,29.89,29.78,0,0,0,0.00
2014-9-8,78.8,64.9,50.7,56.4,52.2,48.0,91,66,39,29.97,29.85,0,0,0,0.00
2014-9-9,75.3,66.2,60.7,55.2,50.6,46.4,78,59,36,30.11,29.97,0,0,0,0.00
2014-9-10,78.3,64.7,53.4,54.1,51.1,43.2,93,65,30,30.15,30.01,0,0,0,0.00
2014-9-11,80.1,68.0,57.9,50.6,36.3,30.4,63,33,19,30.08,29.92,0,0,0,0.00
2014-9-12,83.6,68.9,58.6,40.5,34.5,29.9,36,28,19,29.93,29.82,0,0,0,0.00
2014-9-13,86.2,68.2,50.0,43.7,39.8,36.5,73,38,19,29.86,29.75,0,0,0,0.00
2014-9-14,87.1,66.4,49.6,46.6,42.7,40.1,78,46,20,29.85,29.76,0,0,0,0.00
2014-9-15,88.8,67.7,52.0,51.0,47.0,42.7,79,51,20,29.85,29.74,0,0,0,0.00
2014-9-16,82.0,66.1,53.7,55.2,53.0,49.5,88,65,39,29.92,29.79,0,0,0,0.00
2014-9-17,74.9,67.4,61.0,60.0,56.1,54.2,78,67,52,29.79,29.69,0,0,0,0.00
2014-9-18,82.7,68.2,60.3,59.9,57.1,55.7,88,69,42,29.96,29.70,0,0,0,0.00
2014-9-19,80.9,67.8,55.9,58.3,54.5,46.8,91,66,30,30.07,29.96,0,0,0,0.00
2014-9-20,87.6,71.4,59.4,58.8,57.6,56.1,92,65,34,30.00,29.76,0,0,0,0.00
2014-9-21,89.4,69.7,58.4,57.4,55.3,50.9,85,63,28,29.96,29.80,0,0,0,0.00
2014-9-22,74.5,66.1,60.0,59.7,56.0,54.1,89,70,52,30.01,29.89,0,0,0,0.00
2014-9-23,68.3,63.1,58.6,63.0,59.7,56.7,96,88,79,29.90,29.69,0,0,0,0.00
2014-9-24,66.8,62.9,59.7,62.9,61.4,58.9,98,94,83,29.86,29.75,0,0,0,0.00
2014-9-25,71.9,61.3,55.9,61.1,57.9,54.8,99,89,54,29.92,29.82,0,0,0,0.00
2014-9-26,80.0,62.7,55.0,57.6,56.1,54.7,99,81,42,30.05,29.92,0,0,0,0.00
2014-9-27,70.6,61.9,56.1,57.1,56.1,55.2,96,82,60,30.08,29.98,0,0,0,0.00
2014-9-28,76.3,62.7,53.6,56.2,54.1,51.9,94,76,43,29.98,29.87,0,0,0,0.00
2014-9-29,68.3,59.4,50.6,60.6,54.9,49.9,98,85,63,30.05,29.90,0,0,0,0.00
2014-9-30,72.9,60.4,52.4,57.5,53.8,49.9,94,80,45,30.18,30.05,0,0,0,0.00
2014-10-1,67.3,56.1,47.0,52.8,48.4,46.4,98,78,48,30.23,30.14,0,0,0,0.00
2014-10-2,70.9,58.9,49.2,50.5,48.1,46.2,94,70,42,30.24,30.17,0,0,0,0.00
2014-10-3,76.9,61.2,48.8,52.7,49.0,45.2,89,66,38,30.19,30.11,0,0,0,0.00
2014-10-4,80.6,63.0,48.3,54.4,50.7,46.5,94,68,34,30.17,30.04,0,0,0,0.00
2014-10-5,82.8,67.9,52.9,60.0,54.5,49.8,90,64,41,30.08,29.96,0,0,0,0.00
2014-10-6,83.1,70.6,59.6,59.7,57.7,55.9,88,65,42,29.99,29.85,0,0,0,0.00
2014-10-7,82.0,68.0,56.1,61.6,58.3,53.9,92,73,48,29.93,29.83,0,0,0,0.00
2014-10-8,75.9,62.9,52.0,57.7,53.3,49.3,95,73,39,29.98,29.88,0,0,0,0.00
2014-10-9,75.1,61.1,49.5,57.2,52.9,47.5,96,76,48,30.02,29.94,0,0,0,0.01
2014-10-10,76.4,62.0,50.4,57.9,53.4,47.9,93,75,51,30.09,29.99,0,0,0,0.00
2014-10-11,77.1,64.6,54.3,60.2,54.4,50.6,89,71,40,30.26,30.05,0,0,0,0.01
2014-10-12,69.8,58.0,49.9,54.3,50.9,48.5,95,79,48,30.27,30.01,0,0,0,0.01
2014-10-13,79.6,60.1,46.7,57.7,48.7,44.1,94,70,30,30.01,29.73,0,0,0,0.03
2014-10-14,62.0,58.6,55.2,57.2,55.7,53.9,95,90,80,29.85,29.54,0,0,0,0.01
2014-10-15,61.0,56.2,53.8,57.1,53.4,51.4,96,90,76,30.01,29.52,0,0,0,0.03
2014-10-16,74.1,58.3,50.4,53.6,51.1,47.9,97,79,40,30.01,29.76,0,0,0,0.00
2014-10-17,63.4,59.2,55.2,59.4,56.3,52.6,95,90,81,29.88,29.73,0,0,0,0.05
2014-10-18,79.8,65.6,59.2,62.8,59.5,55.9,93,82,51,29.96,29.77,0,0,0,0.00
2014-10-19,81.0,65.0,56.5,61.2,58.0,54.6,94,79,46,29.78,29.68,0,0,0,0.15
2014-10-20,64.9,60.2,55.2,61.0,57.4,52.8,94,90,82,29.87,29.70,0,0,0,0.00
2014-10-21,63.0,57.7,53.2,53.1,51.8,50.7,93,81,66,30.00,29.83,0,0,0,0.04
2014-10-22,60.1,57.5,55.9,59.0,55.6,52.2,100,93,83,29.83,29.68,0,0,0,0.02
2014-10-23,61.9,57.2,52.7,59.7,56.1,52.1,100,96,84,29.99,29.74,0,0,0,0.04
2014-10-24,53.4,52.5,50.7,53.3,52.2,50.6,100,99,96,30.00,29.64,0,0,0,0.03
2014-10-25,62.6,54.9,50.9,57.5,53.3,50.5,100,94,74,29.95,29.36,0,0,0,0.02
2014-10-26,61.0,52.1,47.8,55.7,50.7,47.5,100,95,74,30.17,29.95,0,0,0,0.02
2014-10-27,65.1,54.1,47.8,51.5,49.4,47.5,100,85,58,30.17,29.97,0,0,0,0.00
2014-10-28,62.4,57.3,53.6,56.2,51.5,47.5,98,81,61,30.04,29.91,0,0,0,0.01
2014-10-29,66.7,59.7,56.1,57.6,56.1,54.5,97,88,70,30.13,29.98,0,0,0,0.00
2014-10-30,61.9,59.3,56.8,59.7,58.0,56.5,99,95,90,29.97,29.73,0,0,0,0.00
2014-10-31,62.2,55.2,49.6,58.2,53.3,48.6,100,93,74,29.83,29.66,0,0,0,0.50
2014-11-1,56.2,49.6,46.0,50.4,48.1,46.0,100,94,77,30.09,29.79,0,0,0,0.04
2014-11-2,56.5,51.2,46.6,52.2,49.2,46.3,99,93,81,30.21,30.09,0,0,0,0.07
2014-11-3,57.1,54.5,52.1,54.9,53.0,51.1,97,94,89,30.21,30.12,0,0,0,0.04
2014-11-4,60.0,57.4,54.3,58.3,56.5,54.3,100,96,90,30.28,30.08,0,0,0,0.02
2014-11-5,67.4,59.6,55.0,59.9,57.2,53.9,98,91,75,30.27,29.98,0,0,0,0.05
2014-11-6,61.6,56.0,47.8,59.5,54.7,47.8,100,95,81,30.32,29.92,0,0,0,0.06
2014-11-7,56.2,49.2,45.4,51.7,47.3,45.1,100,93,69,30.43,30.29,0,0,0,0.07
2014-11-8,51.5,46.3,42.5,48.0,45.6,42.5,100,97,86,30.29,30.08,0,0,0,0.06
2014-11-9,57.5,49.2,43.3,55.3,48.2,43.3,100,96,80,30.10,29.97,0,0,0,0.11
2014-11-10,54.7,46.8,42.1,49.3,43.6,34.6,100,89,68,30.11,29.97,0,0,0,0.03
2014-11-11,55.0,43.9,34.7,34.8,28.2,17.9,73,55,37,30.09,29.94,0,0,0,0.05
2014-11-12,46.3,37.8,32.2,23.7,19.1,15.9,52,46,35,30.12,29.92,0,0,0,0.02
2014-11-13,36.4,33.5,32.2,33.9,32.1,21.9,100,95,55,29.94,29.80,0,0,0,0.04
2014-11-14,40.8,35.7,31.7,38.6,34.6,29.9,100,96,87,30.17,29.94,0,0,0,0.02
2014-11-15,45.3,34.7,28.2,30.0,24.7,19.1,90,68,47,30.39,30.17,0,0,0,0.01
2014-11-16,45.1,34.4,26.0,27.3,21.3,17.3,79,59,40,30.39,30.28,0,0,0,0.02
2014-11-17,44.5,33.0,23.9,30.1,25.4,22.4,96,75,48,30.36,30.12,0,0,0,0.01
2014-11-18,43.9,35.2,27.4,32.2,28.4,23.2,96,77,56,30.14,30.03,0,0,0,0.00
2014-11-19,48.9,41.4,34.7,42.4,34.4,27.9,97,77,48,30.04,29.82,0,0,0,0.04
2014-11-20,51.3,47.9,43.2,49.5,47.1,42.5,99,97,93,29.97,29.91,0,0,0,0.07
2014-11-21,55.4,51.2,48.9,55.4,50.8,48.1,100,98,94,29.93,29.48,0,0,0,0.06
2014-11-22,54.3,49.4,44.8,51.6,48.7,44.8,100,97,85,30.25,29.65,0,0,0,0.02
2014-11-23,56.1,49.1,43.3,50.6,47.3,43.3,100,94,76,30.32,30.24,0,0,0,0.04
2014-11-24,54.1,49.9,43.5,51.1,46.8,43.5,100,89,74,30.34,30.24,0,0,0,0.06
2014-11-25,60.7,57.4,53.2,58.1,55.4,50.7,97,93,87,30.34,30.26,0,0,0,0.02
2014-11-26,60.6,55.3,51.4,54.8,52.2,50.6,97,89,73,30.26,29.97,0,0,0,0.03
2014-11-27,56.1,54.6,52.9,53.2,52.1,50.6,99,91,82,29.99,29.79,0,0,0,0.01
2014-11-28,55.6,52.5,46.0,55.4,52.0,45.4,100,98,93,29.79,29.50,0,0,0,0.02
2014-11-29,47.9,41.7,31.8,46.0,40.3,31.5,100,94,74,30.02,29.63,0,0,0,0.08
2014-11-30,40.5,33.6,29.7,32.2,26.0,21.1,99,75,55,30.05,29.93,0,0,0,0.08
2014-12-1,38.3,35.7,33.0,38.1,33.3,23.0,100,91,65,30.12,30.03,0,0,0,0.02
2014-12-2,41.7,38.0,35.6,38.1,34.7,30.9,100,88,76,30.09,29.75,0,0,0,0.04
2014-12-3,48.0,42.0,36.3,38.9,34.4,31.5,90,74,61,29.76,29.66,0,0,0,0.10
2014-12-4,46.9,43.3,40.0,46.6,42.9,36.9,100,98,81,29.89,29.75,0,0,0,0.03
2014-12-5,50.9,47.2,44.7,50.0,47.0,44.7,100,99,95,29.92,29.73,0,0,0,0.05
2014-12-6,56.8,50.7,44.4,54.2,49.6,44.3,100,96,84,30.18,29.83,0,0,0,0.00
2014-12-7,49.6,45.4,40.8,47.7,44.9,40.8,100,98,92,30.15,29.97,0,0,0,0.03
2014-12-8,55.0,48.1,42.3,51.7,47.0,42.3,100,96,88,30.03,29.89,0,0,0,0.02
2014-12-9,60.4,57.5,54.4,58.2,54.8,50.2,99,91,73,29.91,29.72,0,0,0,0.01
2014-12-10,59.2,54.5,46.7,56.7,53.1,46.6,100,95,77,29.72,29.32,0,0,0,0.07
2014-12-11,60.6,50.8,45.7,55.3,49.1,45.7,100,94,64,29.62,29.06,0,0,0,0.03
2014-12-12,53.6,47.6,40.8,51.7,47.2,40.7,100,98,91,30.05,29.61,0,0,0,0.04
2014-12-13,56.9,46.0,41.5,48.8,44.7,41.5,100,95,72,30.20,30.05,0,0,0,0.02
2014-12-14,46.9,42.9,39.4,44.4,41.4,38.3,100,94,85,30.13,29.87,0,0,0,0.02
2014-12-15,46.9,43.8,41.0,43.6,40.4,36.7,97,87,80,29.89,29.76,0,0,0,0.00
2014-12-16,48.9,44.7,41.2,45.8,43.2,41.2,100,94,87,29.80,29.72,0,0,0,0.09
2014-12-17,49.3,46.0,40.8,48.7,44.6,39.7,100,94,85,29.95,29.73,0,0,0,0.03
2014-12-18,53.2,49.0,42.6,50.8,47.9,42.6,100,96,87,29.94,29.75,0,0,0,0.07
2014-12-19,52.6,48.2,45.3,50.3,47.6,45.3,100,98,86,30.00,29.85,0,0,0,0.02
2014-12-20,57.0,51.8,48.4,57.0,51.8,48.4,100,100,99,29.86,29.66,0,0,0,0.01
2014-12-21,57.5,54.5,51.6,57.2,53.7,51.5,100,97,91,30.17,29.78,0,0,0,0.00
2014-12-22,55.8,52.4,48.8,53.7,51.9,48.8,100,98,90,30.35,30.16,0,0,0,0.03
2014-12-23,58.4,54.5,50.5,56.7,53.9,50.5,100,97,94,30.28,29.98,0,0,0,0.03
2014-12-24,55.0,45.2,39.6,53.9,45.0,39.6,100,99,94,30.11,29.85,0,0,0,0.02
2014-12-25,54.7,45.0,40.8,49.1,44.0,40.8,100,96,71,30.27,30.09,0,0,0,0.00
2014-12-26,54.1,46.4,43.0,47.6,44.7,42.5,100,94,72,30.34,30.25,0,0,0,0.00
2014-12-27,45.5,43.4,41.2,45.5,41.8,38.6,100,94,85,30.31,30.19,0,0,0,0.01
2014-12-28,49.4,44.6,40.8,45.3,42.8,40.8,100,93,76,30.28,30.16,0,0,0,0.00
2014-12-29,44.4,39.6,31.5,41.7,35.7,23.1,100,86,64,30.54,30.13,0,0,0,0.00
2014-12-30,36.7,30.5,26.4,23.8,17.5,14.0,73,58,41,30.71,30.54,0,0,0,0.04
2014-12-31,36.3,29.6,23.1,21.6,18.0,3.8,74,62,47,30.63,30.30,0,0,0,0.02
2015-1-1,39.9,31.6,26.4,25.8,22.1,17.3,86,68,49,30.30,30.19,0,0,0,0.04
2015-1-2,46.0,34.6,26.2,34.3,29.7,24.3,97,82,59,30.23,30.12,0,0,0,0.09